sensor_id;sensor_type;location;lat;lon;timestamp;P1;durP1;ratioP1;P2;durP2;ratioP2
75386;SDS011;63966;47.914;22.266;2024-01-30T00:02:53;54.20;;;24.35;;
75386;SDS011;63966;47.914;22.266;2024-01-30T00:05:56;57.28;;;26.38;;
75386;SDS011;63966;47.914;22.266;2024-01-30T00:09:01;56.80;;;25.73;;
75386;SDS011;63966;47.914;22.266;2024-01-30T00:12:04;59.40;;;27.08;;
75386;SDS011;63966;47.914;22.266;2024-01-30T00:15:08;57.70;;;25.50;;
75386;SDS011;63966;47.914;22.266;2024-01-30T00:18:12;57.70;;;27.03;;
75386;SDS011;63966;47.914;22.266;2024-01-30T00:21:16;54.70;;;23.13;;
75386;SDS011;63966;47.914;22.266;2024-01-30T00:24:20;53.83;;;24.27;;
75386;SDS011;63966;47.914;22.266;2024-01-30T00:27:23;54.63;;;24.95;;
75386;SDS011;63966;47.914;22.266;2024-01-30T00:30:26;47.53;;;22.60;;
75386;SDS011;63966;47.914;22.266;2024-01-30T00:33:30;58.22;;;23.33;;
75386;SDS011;63966;47.914;22.266;2024-01-30T00:36:33;50.63;;;24.08;;
75386;SDS011;63966;47.914;22.266;2024-01-30T00:39:37;56.03;;;23.13;;
75386;SDS011;63966;47.914;22.266;2024-01-30T00:42:41;52.97;;;23.98;;
75386;SDS011;63966;47.914;22.266;2024-01-30T00:45:45;56.75;;;26.17;;
75386;SDS011;63966;47.914;22.266;2024-01-30T00:48:48;58.20;;;26.05;;
75386;SDS011;63966;47.914;22.266;2024-01-30T00:51:52;52.00;;;23.47;;
75386;SDS011;63966;47.914;22.266;2024-01-30T00:54:55;51.13;;;25.45;;
75386;SDS011;63966;47.914;22.266;2024-01-30T00:57:59;60.90;;;25.70;;
75386;SDS011;63966;47.914;22.266;2024-01-30T01:01:02;71.40;;;31.97;;
75386;SDS011;63966;47.914;22.266;2024-01-30T01:04:06;76.13;;;32.80;;
75386;SDS011;63966;47.914;22.266;2024-01-30T01:07:10;80.75;;;32.47;;
75386;SDS011;63966;47.914;22.266;2024-01-30T01:10:14;65.93;;;28.67;;
75386;SDS011;63966;47.914;22.266;2024-01-30T01:13:19;52.73;;;24.03;;
75386;SDS011;63966;47.914;22.266;2024-01-30T01:16:22;64.90;;;28.10;;
75386;SDS011;63966;47.914;22.266;2024-01-30T01:19:26;59.47;;;26.15;;
75386;SDS011;63966;47.914;22.266;2024-01-30T01:22:30;49.58;;;23.13;;
75386;SDS011;63966;47.914;22.266;2024-01-30T01:25:33;51.10;;;22.30;;
75386;SDS011;63966;47.914;22.266;2024-01-30T01:28:37;64.63;;;27.38;;
75386;SDS011;63966;47.914;22.266;2024-01-30T01:31:41;50.17;;;23.35;;
75386;SDS011;63966;47.914;22.266;2024-01-30T01:34:48;50.10;;;23.50;;
75386;SDS011;63966;47.914;22.266;2024-01-30T01:37:52;55.05;;;23.27;;
75386;SDS011;63966;47.914;22.266;2024-01-30T01:41:00;57.60;;;25.17;;
75386;SDS011;63966;47.914;22.266;2024-01-30T01:44:03;53.10;;;22.20;;
75386;SDS011;63966;47.914;22.266;2024-01-30T01:56:40;105.95;;;36.05;;
75386;SDS011;63966;47.914;22.266;2024-01-30T01:59:44;51.63;;;22.63;;
75386;SDS011;63966;47.914;22.266;2024-01-30T02:02:48;52.05;;;22.88;;
75386;SDS011;63966;47.914;22.266;2024-01-30T02:05:52;72.90;;;28.80;;
75386;SDS011;63966;47.914;22.266;2024-01-30T02:08:57;77.20;;;28.70;;
75386;SDS011;63966;47.914;22.266;2024-01-30T02:12:00;70.88;;;28.08;;
75386;SDS011;63966;47.914;22.266;2024-01-30T02:15:04;62.17;;;26.85;;
75386;SDS011;63966;47.914;22.266;2024-01-30T02:18:09;60.75;;;26.52;;
75386;SDS011;63966;47.914;22.266;2024-01-30T02:21:16;65.05;;;29.13;;
75386;SDS011;63966;47.914;22.266;2024-01-30T02:24:21;70.95;;;31.27;;
75386;SDS011;63966;47.914;22.266;2024-01-30T02:27:24;75.63;;;30.73;;
75386;SDS011;63966;47.914;22.266;2024-01-30T02:30:28;57.30;;;24.60;;
75386;SDS011;63966;47.914;22.266;2024-01-30T02:33:31;43.40;;;20.23;;
75386;SDS011;63966;47.914;22.266;2024-01-30T02:36:35;60.33;;;25.23;;
75386;SDS011;63966;47.914;22.266;2024-01-30T02:39:38;47.27;;;20.93;;
75386;SDS011;63966;47.914;22.266;2024-01-30T02:42:42;47.20;;;21.10;;
75386;SDS011;63966;47.914;22.266;2024-01-30T02:45:46;61.70;;;26.80;;
75386;SDS011;63966;47.914;22.266;2024-01-30T02:48:49;62.05;;;25.77;;
75386;SDS011;63966;47.914;22.266;2024-01-30T02:51:53;61.85;;;25.00;;
75386;SDS011;63966;47.914;22.266;2024-01-30T02:54:59;63.00;;;26.50;;
75386;SDS011;63966;47.914;22.266;2024-01-30T02:58:03;55.88;;;23.65;;
75386;SDS011;63966;47.914;22.266;2024-01-30T03:01:06;56.70;;;23.33;;
75386;SDS011;63966;47.914;22.266;2024-01-30T03:04:10;54.00;;;23.17;;
75386;SDS011;63966;47.914;22.266;2024-01-30T03:07:14;44.80;;;20.45;;
75386;SDS011;63966;47.914;22.266;2024-01-30T03:10:17;62.27;;;26.20;;
75386;SDS011;63966;47.914;22.266;2024-01-30T03:13:21;64.60;;;26.05;;
75386;SDS011;63966;47.914;22.266;2024-01-30T03:16:27;70.90;;;27.60;;
75386;SDS011;63966;47.914;22.266;2024-01-30T03:19:30;43.75;;;20.05;;
75386;SDS011;63966;47.914;22.266;2024-01-30T03:22:34;38.00;;;19.65;;
75386;SDS011;63966;47.914;22.266;2024-01-30T03:25:37;41.70;;;17.60;;
75386;SDS011;63966;47.914;22.266;2024-01-30T03:28:41;48.95;;;20.58;;
75386;SDS011;63966;47.914;22.266;2024-01-30T03:31:44;40.93;;;18.03;;
75386;SDS011;63966;47.914;22.266;2024-01-30T03:34:47;43.10;;;19.45;;
75386;SDS011;63966;47.914;22.266;2024-01-30T03:37:51;41.00;;;18.30;;
75386;SDS011;63966;47.914;22.266;2024-01-30T03:40:54;55.70;;;21.77;;
75386;SDS011;63966;47.914;22.266;2024-01-30T03:43:58;78.35;;;28.23;;
75386;SDS011;63966;47.914;22.266;2024-01-30T03:47:01;55.58;;;24.08;;
75386;SDS011;63966;47.914;22.266;2024-01-30T03:50:05;45.60;;;20.05;;
75386;SDS011;63966;47.914;22.266;2024-01-30T03:53:09;46.40;;;20.13;;
75386;SDS011;63966;47.914;22.266;2024-01-30T03:56:12;42.15;;;19.33;;
75386;SDS011;63966;47.914;22.266;2024-01-30T03:59:16;37.80;;;16.13;;
75386;SDS011;63966;47.914;22.266;2024-01-30T04:02:24;54.67;;;22.17;;
75386;SDS011;63966;47.914;22.266;2024-01-30T04:05:28;67.30;;;24.88;;
75386;SDS011;63966;47.914;22.266;2024-01-30T04:08:31;38.30;;;16.00;;
75386;SDS011;63966;47.914;22.266;2024-01-30T04:11:34;48.90;;;19.45;;
75386;SDS011;63966;47.914;22.266;2024-01-30T04:14:38;37.15;;;17.25;;
75386;SDS011;63966;47.914;22.266;2024-01-30T04:17:42;29.77;;;14.00;;
75386;SDS011;63966;47.914;22.266;2024-01-30T04:20:46;40.70;;;17.25;;
75386;SDS011;63966;47.914;22.266;2024-01-30T04:23:50;46.77;;;19.20;;
75386;SDS011;63966;47.914;22.266;2024-01-30T04:26:54;65.68;;;24.83;;
75386;SDS011;63966;47.914;22.266;2024-01-30T04:29:57;61.47;;;24.52;;
75386;SDS011;63966;47.914;22.266;2024-01-30T04:33:01;51.90;;;22.03;;
75386;SDS011;63966;47.914;22.266;2024-01-30T04:36:04;60.00;;;25.25;;
75386;SDS011;63966;47.914;22.266;2024-01-30T04:39:14;53.20;;;22.45;;
75386;SDS011;63966;47.914;22.266;2024-01-30T04:42:17;56.40;;;24.77;;
75386;SDS011;63966;47.914;22.266;2024-01-30T04:45:21;62.70;;;24.27;;
75386;SDS011;63966;47.914;22.266;2024-01-30T04:48:24;45.13;;;18.08;;
75386;SDS011;63966;47.914;22.266;2024-01-30T04:51:27;33.55;;;16.35;;
75386;SDS011;63966;47.914;22.266;2024-01-30T04:54:32;41.60;;;19.13;;
75386;SDS011;63966;47.914;22.266;2024-01-30T04:57:35;41.75;;;18.13;;
75386;SDS011;63966;47.914;22.266;2024-01-30T05:00:39;34.28;;;15.88;;
75386;SDS011;63966;47.914;22.266;2024-01-30T05:03:42;41.70;;;18.43;;
75386;SDS011;63966;47.914;22.266;2024-01-30T05:06:46;35.85;;;15.98;;
75386;SDS011;63966;47.914;22.266;2024-01-30T05:09:50;113.60;;;40.70;;
75386;SDS011;63966;47.914;22.266;2024-01-30T05:12:56;125.57;;;35.08;;
75386;SDS011;63966;47.914;22.266;2024-01-30T05:16:01;142.73;;;42.45;;
75386;SDS011;63966;47.914;22.266;2024-01-30T05:19:06;77.28;;;32.88;;
75386;SDS011;63966;47.914;22.266;2024-01-30T05:22:10;51.42;;;21.35;;
75386;SDS011;63966;47.914;22.266;2024-01-30T05:25:17;51.43;;;20.60;;
75386;SDS011;63966;47.914;22.266;2024-01-30T05:28:21;55.45;;;22.75;;
75386;SDS011;63966;47.914;22.266;2024-01-30T05:31:25;66.15;;;25.38;;
75386;SDS011;63966;47.914;22.266;2024-01-30T05:34:29;49.33;;;21.23;;
75386;SDS011;63966;47.914;22.266;2024-01-30T05:37:33;39.63;;;17.77;;
75386;SDS011;63966;47.914;22.266;2024-01-30T05:40:37;37.75;;;17.83;;
75386;SDS011;63966;47.914;22.266;2024-01-30T05:43:40;53.00;;;20.83;;
75386;SDS011;63966;47.914;22.266;2024-01-30T05:46:43;56.55;;;21.60;;
75386;SDS011;63966;47.914;22.266;2024-01-30T05:49:47;54.88;;;24.40;;
75386;SDS011;63966;47.914;22.266;2024-01-30T05:52:50;45.92;;;21.42;;
75386;SDS011;63966;47.914;22.266;2024-01-30T05:55:53;49.57;;;20.73;;
75386;SDS011;63966;47.914;22.266;2024-01-30T05:58:57;47.00;;;19.42;;
75386;SDS011;63966;47.914;22.266;2024-01-30T06:02:00;45.63;;;20.30;;
75386;SDS011;63966;47.914;22.266;2024-01-30T06:05:04;50.37;;;20.47;;
75386;SDS011;63966;47.914;22.266;2024-01-30T06:08:07;48.35;;;20.80;;
75386;SDS011;63966;47.914;22.266;2024-01-30T06:11:11;45.33;;;19.77;;
75386;SDS011;63966;47.914;22.266;2024-01-30T06:14:14;47.92;;;19.70;;
75386;SDS011;63966;47.914;22.266;2024-01-30T06:17:18;43.30;;;19.55;;
75386;SDS011;63966;47.914;22.266;2024-01-30T06:20:23;41.67;;;18.73;;
75386;SDS011;63966;47.914;22.266;2024-01-30T06:23:26;48.42;;;18.67;;
75386;SDS011;63966;47.914;22.266;2024-01-30T06:26:30;44.80;;;19.33;;
75386;SDS011;63966;47.914;22.266;2024-01-30T06:29:33;45.33;;;20.55;;
75386;SDS011;63966;47.914;22.266;2024-01-30T06:32:37;47.30;;;20.40;;
75386;SDS011;63966;47.914;22.266;2024-01-30T06:35:41;47.73;;;19.97;;
75386;SDS011;63966;47.914;22.266;2024-01-30T06:38:46;49.28;;;20.42;;
75386;SDS011;63966;47.914;22.266;2024-01-30T06:41:49;45.35;;;19.23;;
75386;SDS011;63966;47.914;22.266;2024-01-30T06:44:54;46.88;;;20.50;;
75386;SDS011;63966;47.914;22.266;2024-01-30T06:47:58;40.13;;;19.13;;
75386;SDS011;63966;47.914;22.266;2024-01-30T06:51:02;40.58;;;18.73;;
75386;SDS011;63966;47.914;22.266;2024-01-30T06:54:09;49.85;;;22.10;;
75386;SDS011;63966;47.914;22.266;2024-01-30T06:57:13;65.45;;;29.05;;
75386;SDS011;63966;47.914;22.266;2024-01-30T07:00:16;233.70;;;70.83;;
75386;SDS011;63966;47.914;22.266;2024-01-30T07:03:22;299.02;;;83.93;;
75386;SDS011;63966;47.914;22.266;2024-01-30T07:06:25;236.57;;;66.60;;
75386;SDS011;63966;47.914;22.266;2024-01-30T07:09:29;187.32;;;51.97;;
75386;SDS011;63966;47.914;22.266;2024-01-30T07:12:33;546.00;;;157.53;;
75386;SDS011;63966;47.914;22.266;2024-01-30T07:15:36;445.77;;;131.15;;
75386;SDS011;63966;47.914;22.266;2024-01-30T07:18:40;595.55;;;194.73;;
75386;SDS011;63966;47.914;22.266;2024-01-30T07:21:43;419.70;;;132.50;;
75386;SDS011;63966;47.914;22.266;2024-01-30T07:24:48;262.98;;;88.00;;
75386;SDS011;63966;47.914;22.266;2024-01-30T07:27:53;166.23;;;58.90;;
75386;SDS011;63966;47.914;22.266;2024-01-30T07:30:56;61.03;;;30.00;;
75386;SDS011;63966;47.914;22.266;2024-01-30T07:34:00;48.85;;;24.52;;
75386;SDS011;63966;47.914;22.266;2024-01-30T07:37:04;42.22;;;22.33;;
75386;SDS011;63966;47.914;22.266;2024-01-30T07:40:10;39.10;;;19.73;;
75386;SDS011;63966;47.914;22.266;2024-01-30T07:43:14;28.93;;;16.07;;
75386;SDS011;63966;47.914;22.266;2024-01-30T07:46:18;32.13;;;16.17;;
75386;SDS011;63966;47.914;22.266;2024-01-30T07:49:21;32.95;;;16.70;;
75386;SDS011;63966;47.914;22.266;2024-01-30T07:52:25;39.60;;;22.00;;
75386;SDS011;63966;47.914;22.266;2024-01-30T07:55:29;31.30;;;13.98;;
75386;SDS011;63966;47.914;22.266;2024-01-30T07:58:34;33.03;;;17.33;;
75386;SDS011;63966;47.914;22.266;2024-01-30T08:01:38;29.37;;;15.20;;
75386;SDS011;63966;47.914;22.266;2024-01-30T08:04:42;27.02;;;14.65;;
75386;SDS011;63966;47.914;22.266;2024-01-30T08:07:46;26.52;;;13.77;;
75386;SDS011;63966;47.914;22.266;2024-01-30T08:10:49;22.77;;;11.60;;
75386;SDS011;63966;47.914;22.266;2024-01-30T08:13:53;24.43;;;12.73;;
75386;SDS011;63966;47.914;22.266;2024-01-30T08:16:57;26.23;;;13.27;;
75386;SDS011;63966;47.914;22.266;2024-01-30T08:20:00;28.77;;;15.00;;
75386;SDS011;63966;47.914;22.266;2024-01-30T08:23:06;24.23;;;12.48;;
75386;SDS011;63966;47.914;22.266;2024-01-30T08:26:09;24.48;;;12.77;;
75386;SDS011;63966;47.914;22.266;2024-01-30T08:29:13;26.73;;;14.03;;
75386;SDS011;63966;47.914;22.266;2024-01-30T08:32:17;24.08;;;12.82;;
75386;SDS011;63966;47.914;22.266;2024-01-30T08:35:20;28.63;;;12.85;;
75386;SDS011;63966;47.914;22.266;2024-01-30T08:38:24;26.13;;;13.07;;
75386;SDS011;63966;47.914;22.266;2024-01-30T08:41:28;24.73;;;12.25;;
75386;SDS011;63966;47.914;22.266;2024-01-30T08:44:31;26.10;;;13.00;;
75386;SDS011;63966;47.914;22.266;2024-01-30T08:47:35;22.08;;;11.93;;
75386;SDS011;63966;47.914;22.266;2024-01-30T08:50:38;24.83;;;12.88;;
75386;SDS011;63966;47.914;22.266;2024-01-30T08:53:42;30.02;;;13.73;;
75386;SDS011;63966;47.914;22.266;2024-01-30T08:56:45;37.47;;;18.73;;
75386;SDS011;63966;47.914;22.266;2024-01-30T08:59:49;35.43;;;17.30;;
75386;SDS011;63966;47.914;22.266;2024-01-30T09:02:56;26.00;;;13.27;;
75386;SDS011;63966;47.914;22.266;2024-01-30T09:05:59;23.98;;;12.32;;
75386;SDS011;63966;47.914;22.266;2024-01-30T09:09:03;25.55;;;12.52;;
75386;SDS011;63966;47.914;22.266;2024-01-30T09:12:07;28.92;;;13.23;;
75386;SDS011;63966;47.914;22.266;2024-01-30T09:15:14;25.57;;;12.27;;
75386;SDS011;63966;47.914;22.266;2024-01-30T09:18:18;25.75;;;12.35;;
75386;SDS011;63966;47.914;22.266;2024-01-30T09:21:21;26.85;;;12.20;;
75386;SDS011;63966;47.914;22.266;2024-01-30T09:24:26;28.55;;;11.55;;
75386;SDS011;63966;47.914;22.266;2024-01-30T09:27:30;28.17;;;13.75;;
75386;SDS011;63966;47.914;22.266;2024-01-30T09:30:33;28.90;;;12.43;;
75386;SDS011;63966;47.914;22.266;2024-01-30T09:33:37;27.33;;;14.05;;
75386;SDS011;63966;47.914;22.266;2024-01-30T09:36:42;28.52;;;12.00;;
75386;SDS011;63966;47.914;22.266;2024-01-30T09:39:46;23.98;;;11.63;;
75386;SDS011;63966;47.914;22.266;2024-01-30T09:42:50;23.60;;;11.63;;
75386;SDS011;63966;47.914;22.266;2024-01-30T09:45:57;21.73;;;10.60;;
75386;SDS011;63966;47.914;22.266;2024-01-30T09:49:02;20.75;;;10.30;;
75386;SDS011;63966;47.914;22.266;2024-01-30T09:52:08;23.25;;;11.23;;
75386;SDS011;63966;47.914;22.266;2024-01-30T09:55:11;23.70;;;12.05;;
75386;SDS011;63966;47.914;22.266;2024-01-30T09:58:15;21.75;;;11.07;;
75386;SDS011;63966;47.914;22.266;2024-01-30T10:01:19;26.33;;;13.77;;
75386;SDS011;63966;47.914;22.266;2024-01-30T10:04:23;20.07;;;10.87;;
75386;SDS011;63966;47.914;22.266;2024-01-30T10:07:30;23.05;;;11.40;;
75386;SDS011;63966;47.914;22.266;2024-01-30T10:10:34;23.70;;;11.40;;
75386;SDS011;63966;47.914;22.266;2024-01-30T10:13:38;21.75;;;10.98;;
75386;SDS011;63966;47.914;22.266;2024-01-30T10:16:42;21.83;;;10.13;;
75386;SDS011;63966;47.914;22.266;2024-01-30T10:19:48;22.50;;;11.68;;
75386;SDS011;63966;47.914;22.266;2024-01-30T10:22:53;21.98;;;10.98;;
75386;SDS011;63966;47.914;22.266;2024-01-30T10:25:57;24.83;;;12.88;;
75386;SDS011;63966;47.914;22.266;2024-01-30T10:29:00;25.92;;;12.45;;
75386;SDS011;63966;47.914;22.266;2024-01-30T10:32:04;22.80;;;11.60;;
75386;SDS011;63966;47.914;22.266;2024-01-30T10:35:08;21.73;;;10.57;;
75386;SDS011;63966;47.914;22.266;2024-01-30T10:38:12;24.42;;;11.35;;
75386;SDS011;63966;47.914;22.266;2024-01-30T10:41:19;23.27;;;11.63;;
75386;SDS011;63966;47.914;22.266;2024-01-30T10:44:28;22.00;;;11.43;;
75386;SDS011;63966;47.914;22.266;2024-01-30T10:47:40;22.17;;;11.23;;
75386;SDS011;63966;47.914;22.266;2024-01-30T10:50:55;22.50;;;11.03;;
75386;SDS011;63966;47.914;22.266;2024-01-30T10:54:02;21.90;;;10.90;;
75386;SDS011;63966;47.914;22.266;2024-01-30T10:57:07;20.95;;;11.00;;
75386;SDS011;63966;47.914;22.266;2024-01-30T11:00:12;28.33;;;12.50;;
75386;SDS011;63966;47.914;22.266;2024-01-30T11:03:18;23.80;;;11.90;;
75386;SDS011;63966;47.914;22.266;2024-01-30T11:06:23;19.10;;;10.20;;
75386;SDS011;63966;47.914;22.266;2024-01-30T11:09:28;21.15;;;10.68;;
75386;SDS011;63966;47.914;22.266;2024-01-30T11:12:33;20.45;;;10.63;;
75386;SDS011;63966;47.914;22.266;2024-01-30T11:15:43;17.77;;;10.00;;
75386;SDS011;63966;47.914;22.266;2024-01-30T11:18:50;21.33;;;11.00;;
75386;SDS011;63966;47.914;22.266;2024-01-30T11:21:56;18.90;;;10.07;;
75386;SDS011;63966;47.914;22.266;2024-01-30T11:25:01;22.38;;;10.23;;
75386;SDS011;63966;47.914;22.266;2024-01-30T11:28:05;19.13;;;9.60;;
75386;SDS011;63966;47.914;22.266;2024-01-30T11:31:18;17.65;;;9.68;;
75386;SDS011;63966;47.914;22.266;2024-01-30T11:34:22;17.50;;;9.13;;
75386;SDS011;63966;47.914;22.266;2024-01-30T11:37:26;22.00;;;11.03;;
75386;SDS011;63966;47.914;22.266;2024-01-30T11:40:31;16.17;;;9.02;;
75386;SDS011;63966;47.914;22.266;2024-01-30T11:43:36;18.88;;;8.18;;
75386;SDS011;63966;47.914;22.266;2024-01-30T11:46:41;18.05;;;8.88;;
75386;SDS011;63966;47.914;22.266;2024-01-30T11:49:44;17.77;;;9.47;;
75386;SDS011;63966;47.914;22.266;2024-01-30T11:52:48;17.80;;;9.70;;
75386;SDS011;63966;47.914;22.266;2024-01-30T11:55:52;17.85;;;8.70;;
75386;SDS011;63966;47.914;22.266;2024-01-30T11:58:56;20.45;;;10.07;;
75386;SDS011;63966;47.914;22.266;2024-01-30T12:01:59;15.90;;;8.27;;
75386;SDS011;63966;47.914;22.266;2024-01-30T12:05:04;14.90;;;7.57;;
75386;SDS011;63966;47.914;22.266;2024-01-30T12:08:13;17.13;;;8.10;;
75386;SDS011;63966;47.914;22.266;2024-01-30T12:11:19;18.23;;;8.52;;
75386;SDS011;63966;47.914;22.266;2024-01-30T12:14:22;15.38;;;8.02;;
75386;SDS011;63966;47.914;22.266;2024-01-30T12:17:31;15.68;;;7.45;;
75386;SDS011;63966;47.914;22.266;2024-01-30T12:20:35;14.87;;;7.07;;
75386;SDS011;63966;47.914;22.266;2024-01-30T12:23:39;13.30;;;6.80;;
75386;SDS011;63966;47.914;22.266;2024-01-30T12:26:44;13.80;;;6.82;;
75386;SDS011;63966;47.914;22.266;2024-01-30T12:29:48;17.92;;;8.10;;
75386;SDS011;63966;47.914;22.266;2024-01-30T12:32:57;12.32;;;6.47;;
75386;SDS011;63966;47.914;22.266;2024-01-30T12:36:01;15.40;;;6.87;;
75386;SDS011;63966;47.914;22.266;2024-01-30T12:39:10;15.73;;;7.50;;
75386;SDS011;63966;47.914;22.266;2024-01-30T12:42:16;16.58;;;7.85;;
75386;SDS011;63966;47.914;22.266;2024-01-30T12:45:19;15.15;;;7.63;;
75386;SDS011;63966;47.914;22.266;2024-01-30T12:48:25;14.82;;;7.80;;
75386;SDS011;63966;47.914;22.266;2024-01-30T12:51:33;19.10;;;9.17;;
75386;SDS011;63966;47.914;22.266;2024-01-30T12:54:38;15.87;;;7.90;;
75386;SDS011;63966;47.914;22.266;2024-01-30T12:57:41;19.27;;;10.07;;
75386;SDS011;63966;47.914;22.266;2024-01-30T13:00:45;21.52;;;10.95;;
75386;SDS011;63966;47.914;22.266;2024-01-30T13:03:50;19.95;;;10.13;;
75386;SDS011;63966;47.914;22.266;2024-01-30T13:06:55;14.83;;;7.90;;
75386;SDS011;63966;47.914;22.266;2024-01-30T13:10:00;20.90;;;10.27;;
75386;SDS011;63966;47.914;22.266;2024-01-30T13:13:06;24.25;;;11.07;;
75386;SDS011;63966;47.914;22.266;2024-01-30T13:16:20;24.67;;;11.45;;
75386;SDS011;63966;47.914;22.266;2024-01-30T13:19:23;18.90;;;9.38;;
75386;SDS011;63966;47.914;22.266;2024-01-30T13:22:27;18.00;;;9.03;;
75386;SDS011;63966;47.914;22.266;2024-01-30T13:25:31;19.63;;;9.13;;
75386;SDS011;63966;47.914;22.266;2024-01-30T13:28:34;20.35;;;9.55;;
75386;SDS011;63966;47.914;22.266;2024-01-30T13:31:38;17.90;;;9.63;;
75386;SDS011;63966;47.914;22.266;2024-01-30T13:34:42;14.18;;;7.97;;
75386;SDS011;63966;47.914;22.266;2024-01-30T13:37:46;18.57;;;8.53;;
75386;SDS011;63966;47.914;22.266;2024-01-30T13:40:50;18.17;;;9.13;;
75386;SDS011;63966;47.914;22.266;2024-01-30T13:43:54;21.77;;;9.00;;
75386;SDS011;63966;47.914;22.266;2024-01-30T13:46:58;17.77;;;8.15;;
75386;SDS011;63966;47.914;22.266;2024-01-30T13:50:02;17.77;;;8.75;;
75386;SDS011;63966;47.914;22.266;2024-01-30T13:53:06;17.67;;;9.20;;
75386;SDS011;63966;47.914;22.266;2024-01-30T13:56:10;16.70;;;8.77;;
75386;SDS011;63966;47.914;22.266;2024-01-30T13:59:13;18.60;;;9.07;;
75386;SDS011;63966;47.914;22.266;2024-01-30T14:02:17;18.52;;;8.65;;
75386;SDS011;63966;47.914;22.266;2024-01-30T14:05:20;17.48;;;8.68;;
75386;SDS011;63966;47.914;22.266;2024-01-30T14:08:24;17.17;;;8.37;;
75386;SDS011;63966;47.914;22.266;2024-01-30T14:11:30;19.10;;;8.73;;
75386;SDS011;63966;47.914;22.266;2024-01-30T14:14:33;17.75;;;8.77;;
75386;SDS011;63966;47.914;22.266;2024-01-30T14:17:37;17.63;;;8.27;;
75386;SDS011;63966;47.914;22.266;2024-01-30T14:20:40;16.58;;;9.00;;
75386;SDS011;63966;47.914;22.266;2024-01-30T14:23:44;18.13;;;8.43;;
75386;SDS011;63966;47.914;22.266;2024-01-30T14:26:49;17.52;;;8.25;;
75386;SDS011;63966;47.914;22.266;2024-01-30T14:29:53;20.38;;;9.52;;
75386;SDS011;63966;47.914;22.266;2024-01-30T14:32:58;18.83;;;9.32;;
75386;SDS011;63966;47.914;22.266;2024-01-30T14:36:01;19.73;;;9.18;;
75386;SDS011;63966;47.914;22.266;2024-01-30T14:39:05;19.27;;;8.07;;
75386;SDS011;63966;47.914;22.266;2024-01-30T14:42:12;17.60;;;8.18;;
75386;SDS011;63966;47.914;22.266;2024-01-30T14:45:15;16.90;;;7.93;;
75386;SDS011;63966;47.914;22.266;2024-01-30T14:48:19;16.45;;;7.35;;
75386;SDS011;63966;47.914;22.266;2024-01-30T14:51:23;14.85;;;7.13;;
75386;SDS011;63966;47.914;22.266;2024-01-30T14:54:27;14.43;;;7.10;;
75386;SDS011;63966;47.914;22.266;2024-01-30T14:57:30;15.77;;;7.20;;
75386;SDS011;63966;47.914;22.266;2024-01-30T15:00:34;15.43;;;6.88;;
75386;SDS011;63966;47.914;22.266;2024-01-30T15:03:40;16.23;;;7.82;;
75386;SDS011;63966;47.914;22.266;2024-01-30T15:06:45;15.60;;;7.20;;
75386;SDS011;63966;47.914;22.266;2024-01-30T15:09:50;14.37;;;7.90;;
75386;SDS011;63966;47.914;22.266;2024-01-30T15:12:54;18.23;;;8.27;;
75386;SDS011;63966;47.914;22.266;2024-01-30T15:15:57;15.52;;;7.00;;
75386;SDS011;63966;47.914;22.266;2024-01-30T15:19:02;17.33;;;8.43;;
75386;SDS011;63966;47.914;22.266;2024-01-30T15:22:07;16.77;;;8.75;;
75386;SDS011;63966;47.914;22.266;2024-01-30T15:25:11;18.20;;;9.07;;
75386;SDS011;63966;47.914;22.266;2024-01-30T15:28:14;21.02;;;9.02;;
75386;SDS011;63966;47.914;22.266;2024-01-30T15:31:19;17.13;;;9.55;;
75386;SDS011;63966;47.914;22.266;2024-01-30T15:34:23;20.33;;;9.55;;
75386;SDS011;63966;47.914;22.266;2024-01-30T15:37:26;20.63;;;10.63;;
75386;SDS011;63966;47.914;22.266;2024-01-30T15:40:30;28.57;;;15.07;;
75386;SDS011;63966;47.914;22.266;2024-01-30T15:43:34;33.90;;;16.20;;
75386;SDS011;63966;47.914;22.266;2024-01-30T15:46:38;53.40;;;20.48;;
75386;SDS011;63966;47.914;22.266;2024-01-30T15:49:43;45.47;;;20.08;;
75386;SDS011;63966;47.914;22.266;2024-01-30T15:52:46;67.90;;;26.77;;
75386;SDS011;63966;47.914;22.266;2024-01-30T15:55:50;63.23;;;28.47;;
75386;SDS011;63966;47.914;22.266;2024-01-30T15:58:53;58.35;;;23.25;;
75386;SDS011;63966;47.914;22.266;2024-01-30T16:01:57;41.75;;;18.52;;
75386;SDS011;63966;47.914;22.266;2024-01-30T16:05:01;35.80;;;17.50;;
75386;SDS011;63966;47.914;22.266;2024-01-30T16:08:05;46.50;;;19.35;;
75386;SDS011;63966;47.914;22.266;2024-01-30T16:11:09;33.37;;;14.63;;
75386;SDS011;63966;47.914;22.266;2024-01-30T16:14:12;39.33;;;17.13;;
75386;SDS011;63966;47.914;22.266;2024-01-30T16:17:16;65.95;;;27.58;;
75386;SDS011;63966;47.914;22.266;2024-01-30T16:20:20;127.97;;;47.15;;
75386;SDS011;63966;47.914;22.266;2024-01-30T16:23:24;88.80;;;34.40;;
75386;SDS011;63966;47.914;22.266;2024-01-30T16:26:29;89.20;;;34.70;;
75386;SDS011;63966;47.914;22.266;2024-01-30T16:29:33;73.47;;;29.00;;
75386;SDS011;63966;47.914;22.266;2024-01-30T16:32:37;62.33;;;24.95;;
75386;SDS011;63966;47.914;22.266;2024-01-30T16:35:41;51.92;;;23.17;;
75386;SDS011;63966;47.914;22.266;2024-01-30T16:38:48;36.45;;;17.55;;
75386;SDS011;63966;47.914;22.266;2024-01-30T16:41:52;52.70;;;20.40;;
75386;SDS011;63966;47.914;22.266;2024-01-30T16:44:55;65.40;;;26.13;;
75386;SDS011;63966;47.914;22.266;2024-01-30T16:47:59;79.07;;;31.35;;
75386;SDS011;63966;47.914;22.266;2024-01-30T16:51:02;106.88;;;39.30;;
75386;SDS011;63966;47.914;22.266;2024-01-30T16:54:06;126.93;;;51.70;;
75386;SDS011;63966;47.914;22.266;2024-01-30T16:57:09;149.37;;;53.57;;
75386;SDS011;63966;47.914;22.266;2024-01-30T17:00:13;132.32;;;44.22;;
75386;SDS011;63966;47.914;22.266;2024-01-30T17:03:17;95.05;;;33.40;;
75386;SDS011;63966;47.914;22.266;2024-01-30T17:06:21;96.40;;;33.65;;
75386;SDS011;63966;47.914;22.266;2024-01-30T17:09:24;117.90;;;42.58;;
75386;SDS011;63966;47.914;22.266;2024-01-30T17:12:28;101.30;;;40.57;;
75386;SDS011;63966;47.914;22.266;2024-01-30T17:15:34;84.65;;;32.33;;
75386;SDS011;63966;47.914;22.266;2024-01-30T17:18:38;81.43;;;33.50;;
75386;SDS011;63966;47.914;22.266;2024-01-30T17:21:41;127.18;;;47.88;;
75386;SDS011;63966;47.914;22.266;2024-01-30T17:24:45;92.22;;;35.55;;
75386;SDS011;63966;47.914;22.266;2024-01-30T17:27:52;85.07;;;35.23;;
75386;SDS011;63966;47.914;22.266;2024-01-30T17:30:56;93.07;;;34.78;;
75386;SDS011;63966;47.914;22.266;2024-01-30T17:34:00;89.57;;;35.53;;
75386;SDS011;63966;47.914;22.266;2024-01-30T17:37:04;90.78;;;36.75;;
75386;SDS011;63966;47.914;22.266;2024-01-30T17:40:08;96.28;;;35.70;;
75386;SDS011;63966;47.914;22.266;2024-01-30T17:43:12;93.47;;;36.57;;
75386;SDS011;63966;47.914;22.266;2024-01-30T17:46:15;90.97;;;36.30;;
75386;SDS011;63966;47.914;22.266;2024-01-30T17:49:19;89.53;;;37.08;;
75386;SDS011;63966;47.914;22.266;2024-01-30T17:52:22;99.25;;;40.90;;
75386;SDS011;63966;47.914;22.266;2024-01-30T17:55:26;104.15;;;40.53;;